createdAt,value
2017-07-03T00:00:04.907Z,13.65
2017-07-03T00:01:04.574Z,13.62
2017-07-03T00:02:04.557Z,13.54
2017-07-03T00:03:04.547Z,13.69
2017-07-03T00:04:04.884Z,13.58
2017-07-03T00:05:04.884Z,13.63
2017-07-03T00:06:04.856Z,13.54
2017-07-03T00:07:04.214Z,13.57
2017-07-03T00:08:04.534Z,13.6
2017-07-03T00:09:04.529Z,13.69
2017-07-03T00:10:04.837Z,13.57
2017-07-03T00:11:04.512Z,13.6
2017-07-03T00:12:04.184Z,13.7
2017-07-03T00:13:04.821Z,13.66
2017-07-03T00:14:04.826Z,13.68
2017-07-03T00:15:04.166Z,13.66
2017-07-03T00:16:04.806Z,13.69
2017-07-03T00:17:04.809Z,13.76
2017-07-03T00:18:04.146Z,13.72
2017-07-03T00:19:04.785Z,13.79
2017-07-03T00:20:04.464Z,13.83
2017-07-03T00:21:04.773Z,13.78
2017-07-03T00:22:04.770Z,13.79
2017-07-03T00:23:04.476Z,13.78
2017-07-03T00:24:04.445Z,13.81
2017-07-03T00:25:04.437Z,13.81
2017-07-03T00:26:04.768Z,13.78
2017-07-03T00:27:04.775Z,13.81
2017-07-03T00:28:04.417Z,13.83
2017-07-03T00:29:04.729Z,13.81
2017-07-03T00:30:04.411Z,13.75
2017-07-03T00:31:04.423Z,13.69
2017-07-03T00:32:04.093Z,13.79
2017-07-03T00:33:04.396Z,13.69
2017-07-03T00:34:04.388Z,13.73
2017-07-03T00:35:04.720Z,13.63
2017-07-03T00:36:04.384Z,13.7
2017-07-03T00:37:04.847Z,13.57
2017-07-03T00:38:04.360Z,13.63
2017-07-03T00:39:04.675Z,13.55
2017-07-03T00:40:04.673Z,13.51
2017-07-03T00:41:04.340Z,13.53
2017-07-03T00:42:04.662Z,13.51
2017-07-03T00:43:04.658Z,13.5
2017-07-03T00:44:04.702Z,13.48
2017-07-03T00:45:04.678Z,13.44
2017-07-03T00:46:04.661Z,13.5
2017-07-03T00:47:04.646Z,13.51
2017-07-03T00:48:04.634Z,13.53
2017-07-03T00:49:03.994Z,13.53
2017-07-03T00:50:04.294Z,13.58
2017-07-03T00:51:04.611Z,13.55
2017-07-03T00:52:04.625Z,13.53
2017-07-03T00:53:03.981Z,13.57
2017-07-03T00:54:04.630Z,13.54
2017-07-03T00:55:04.597Z,13.58
2017-07-03T00:56:04.273Z,13.5
2017-07-03T00:57:04.576Z,13.54
2017-07-03T00:58:04.610Z,13.62
2017-07-03T00:59:04.264Z,13.58
2017-07-03T01:00:04.240Z,13.63
2017-07-03T01:01:04.562Z,13.6
2017-07-03T01:02:04.553Z,13.65
2017-07-03T01:03:04.548Z,13.58
2017-07-03T01:04:03.897Z,13.62
2017-07-03T01:05:04.223Z,13.69
2017-07-03T01:06:04.223Z,13.6
2017-07-03T01:07:04.544Z,13.62
2017-07-03T01:08:04.535Z,13.7
2017-07-03T01:09:04.205Z,13.72
2017-07-03T01:10:04.526Z,13.7
2017-07-03T01:11:04.193Z,13.72
2017-07-03T01:12:04.494Z,13.72
2017-07-03T01:13:04.487Z,13.7
2017-07-03T01:14:03.838Z,13.69
2017-07-03T01:15:03.841Z,13.63
2017-07-03T01:16:04.476Z,13.62
2017-07-03T01:17:04.145Z,13.7
2017-07-03T01:18:04.459Z,13.7
2017-07-03T01:19:04.455Z,13.7
2017-07-03T01:20:04.448Z,13.6
2017-07-03T01:21:04.464Z,13.72
2017-07-03T01:22:04.119Z,13.69
2017-07-03T01:23:04.433Z,13.6
2017-07-03T01:24:04.128Z,13.65
2017-07-03T01:25:04.101Z,13.62
2017-07-03T01:26:04.093Z,13.6
2017-07-03T01:27:04.449Z,13.6
2017-07-03T01:28:04.418Z,13.69
2017-07-03T01:29:04.424Z,13.68
2017-07-03T01:30:04.068Z,13.58
2017-07-03T01:31:03.743Z,13.54
2017-07-03T01:32:04.076Z,13.62
2017-07-03T01:33:04.057Z,13.62
2017-07-03T01:34:04.364Z,13.58
2017-07-03T01:35:04.085Z,13.6
2017-07-03T01:36:04.369Z,13.63
2017-07-03T01:37:04.371Z,13.55
2017-07-03T01:38:04.344Z,13.62
2017-07-03T01:39:04.344Z,13.58
2017-07-03T01:40:04.353Z,13.53
2017-07-03T01:41:04.324Z,13.5
2017-07-03T01:42:04.346Z,13.55
2017-07-03T01:43:03.678Z,13.48
2017-07-03T01:44:04.316Z,13.51
2017-07-03T01:45:03.983Z,13.53
2017-07-03T01:46:04.305Z,13.54
2017-07-03T01:47:04.323Z,13.55
2017-07-03T01:48:03.992Z,13.54
2017-07-03T01:49:04.291Z,13.47
2017-07-03T01:50:04.278Z,13.5
2017-07-03T01:51:03.961Z,13.55
2017-07-03T01:52:03.966Z,13.5
2017-07-03T01:53:04.273Z,13.53
2017-07-03T01:54:03.970Z,13.48
2017-07-03T01:55:03.927Z,13.51
2017-07-03T01:56:04.239Z,13.53
2017-07-03T01:57:04.243Z,13.47
2017-07-03T01:58:04.232Z,13.53
2017-07-03T01:59:03.964Z,13.42
2017-07-03T02:00:04.225Z,13.45
2017-07-03T02:01:03.942Z,13.42
2017-07-03T02:02:03.917Z,13.47
2017-07-03T02:03:03.889Z,13.45
2017-07-03T02:04:04.195Z,13.5
2017-07-03T02:05:04.186Z,13.53
2017-07-03T02:06:03.861Z,13.47
2017-07-03T02:07:04.191Z,13.42
2017-07-03T02:08:03.857Z,13.53
2017-07-03T02:09:04.163Z,13.5
2017-07-03T02:10:04.165Z,13.44
2017-07-03T02:11:03.834Z,13.4
2017-07-03T02:12:04.172Z,13.4
2017-07-03T02:13:03.821Z,13.4
2017-07-03T02:14:04.151Z,13.36
2017-07-03T02:15:04.132Z,13.39
2017-07-03T02:16:03.810Z,13.4
2017-07-03T02:17:04.117Z,13.44
2017-07-03T02:18:03.471Z,13.44
2017-07-03T02:19:03.472Z,13.47
2017-07-03T02:20:03.776Z,13.42
2017-07-03T02:21:04.096Z,13.45
2017-07-03T02:22:04.088Z,13.47
2017-07-03T02:23:03.441Z,13.42
2017-07-03T02:24:04.074Z,13.42
2017-07-03T02:25:04.089Z,13.48
2017-07-03T02:26:04.065Z,13.39
2017-07-03T02:27:04.069Z,13.4
2017-07-03T02:28:03.467Z,13.53
2017-07-03T02:29:03.720Z,13.48
2017-07-03T02:30:03.754Z,13.4
2017-07-03T02:31:03.711Z,13.4
2017-07-03T02:32:03.708Z,13.4
2017-07-03T02:33:03.709Z,13.47
2017-07-03T02:34:04.019Z,13.42
2017-07-03T02:35:03.699Z,13.47
2017-07-03T02:36:04.016Z,13.4
2017-07-03T02:37:04.033Z,13.4
2017-07-03T02:38:03.690Z,13.21
2017-07-03T02:39:03.665Z,13.28
2017-07-03T02:40:03.662Z,13.32
2017-07-03T02:41:03.982Z,13.27
2017-07-03T02:42:03.970Z,13.21
2017-07-03T02:43:03.984Z,13.19
2017-07-03T02:44:03.635Z,13.29
2017-07-03T02:45:03.951Z,13.25
2017-07-03T02:46:03.632Z,13.09
2017-07-03T02:47:03.937Z,13.06
2017-07-03T02:48:03.616Z,13.09
2017-07-03T02:49:03.610Z,13.07
2017-07-03T02:50:03.943Z,12.92
2017-07-03T02:51:03.921Z,12.99
2017-07-03T02:52:03.921Z,12.99
2017-07-03T02:53:03.956Z,12.94
2017-07-03T02:54:03.904Z,13.02
2017-07-03T02:55:03.891Z,12.98
2017-07-03T02:56:03.881Z,12.91
2017-07-03T02:57:03.909Z,12.99
2017-07-03T02:58:03.558Z,12.99
2017-07-03T02:59:03.541Z,12.95
2017-07-03T03:00:03.859Z,12.99
2017-07-03T03:01:03.533Z,12.94
2017-07-03T03:02:03.531Z,12.94
2017-07-03T03:03:03.841Z,12.99
2017-07-03T03:04:03.854Z,12.92
2017-07-03T03:05:03.514Z,12.91
2017-07-03T03:06:03.823Z,12.84
2017-07-03T03:07:03.495Z,12.91
2017-07-03T03:08:03.191Z,12.89
2017-07-03T03:09:03.480Z,12.86
2017-07-03T03:10:03.481Z,12.86
2017-07-03T03:11:03.789Z,12.83
2017-07-03T03:12:03.177Z,12.91
2017-07-03T03:13:03.465Z,12.89
2017-07-03T03:14:03.142Z,12.89
2017-07-03T03:15:03.771Z,12.91
2017-07-03T03:16:03.755Z,12.95
2017-07-03T03:17:03.878Z,12.94
2017-07-03T03:18:03.758Z,12.94
2017-07-03T03:19:03.428Z,12.92
2017-07-03T03:20:03.733Z,12.92
2017-07-03T03:21:03.740Z,12.92
2017-07-03T03:22:03.741Z,12.92
2017-07-03T03:23:03.747Z,12.94
2017-07-03T03:24:03.404Z,12.95
2017-07-03T03:25:03.397Z,13.02
2017-07-03T03:26:03.408Z,12.95
2017-07-03T03:27:03.691Z,12.94
2017-07-03T03:28:03.387Z,12.95
2017-07-03T03:29:03.686Z,12.92
2017-07-03T03:30:03.356Z,12.99
2017-07-03T03:31:03.346Z,13.03
2017-07-03T03:32:03.398Z,13.06
2017-07-03T03:33:03.363Z,13.09
2017-07-03T03:34:03.653Z,13.01
2017-07-03T03:35:03.336Z,13.09
2017-07-03T03:36:03.672Z,13.1
2017-07-03T03:37:03.313Z,13.09
2017-07-03T03:38:03.322Z,13.16
2017-07-03T03:39:03.617Z,13.1
2017-07-03T03:40:03.626Z,13.02
2017-07-03T03:41:03.651Z,13.1
2017-07-03T03:42:02.956Z,13.1
2017-07-03T03:43:03.291Z,13.09
2017-07-03T03:44:02.945Z,13.07
2017-07-03T03:45:03.621Z,13.1
2017-07-03T03:46:03.580Z,13.07
2017-07-03T03:47:03.246Z,12.96
2017-07-03T03:48:03.259Z,12.98
2017-07-03T03:49:03.577Z,12.92
2017-07-03T03:50:03.570Z,12.89
2017-07-03T03:51:03.544Z,12.86
2017-07-03T03:52:03.213Z,12.89
2017-07-03T03:53:03.558Z,12.86
2017-07-03T03:54:03.546Z,12.81
2017-07-03T03:55:02.878Z,12.74
2017-07-03T03:56:03.517Z,12.81
2017-07-03T03:57:03.515Z,12.94
2017-07-03T03:58:03.509Z,12.92
2017-07-03T03:59:03.174Z,13.09
2017-07-03T04:00:03.497Z,13.13
2017-07-03T04:01:03.515Z,13.35
2017-07-03T04:02:03.483Z,13.42
2017-07-03T04:03:03.482Z,13.44
2017-07-03T04:04:03.471Z,13.57
2017-07-03T04:05:03.458Z,13.68
2017-07-03T04:06:02.809Z,13.84
2017-07-03T04:07:03.126Z,13.79
2017-07-03T04:08:03.127Z,13.87
2017-07-03T04:09:03.459Z,13.88
2017-07-03T04:10:03.108Z,13.88
2017-07-03T04:11:03.105Z,14.01
2017-07-03T04:12:03.101Z,13.95
2017-07-03T04:13:03.440Z,13.97
2017-07-03T04:14:03.112Z,13.87
2017-07-03T04:15:03.400Z,13.83
2017-07-03T04:16:03.399Z,13.86
2017-07-03T04:17:03.130Z,13.86
2017-07-03T04:18:03.384Z,13.79
2017-07-03T04:19:03.382Z,13.79
2017-07-03T04:20:03.051Z,13.78
2017-07-03T04:21:02.726Z,13.73
2017-07-03T04:22:03.366Z,13.72
2017-07-03T04:23:03.371Z,13.72
2017-07-03T04:24:03.037Z,13.68
2017-07-03T04:25:03.025Z,13.73
2017-07-03T04:26:03.023Z,13.72
2017-07-03T04:27:03.339Z,13.68
2017-07-03T04:28:03.055Z,13.78
2017-07-03T04:29:03.023Z,13.7
2017-07-03T04:30:02.997Z,13.72
2017-07-03T04:31:03.315Z,13.72
2017-07-03T04:32:02.988Z,13.65
2017-07-03T04:33:03.371Z,13.68
2017-07-03T04:34:03.305Z,13.72
2017-07-03T04:35:03.306Z,13.72
2017-07-03T04:36:03.305Z,13.72
2017-07-03T04:37:02.979Z,13.81
2017-07-03T04:38:03.279Z,13.76
2017-07-03T04:39:02.958Z,13.86
2017-07-03T04:40:03.262Z,13.95
2017-07-03T04:41:03.277Z,13.93
2017-07-03T04:42:03.257Z,14.05
2017-07-03T04:43:02.923Z,14.03
2017-07-03T04:44:02.598Z,14.16
2017-07-03T04:45:02.594Z,14.23
2017-07-03T04:46:02.910Z,14.31
2017-07-03T04:47:02.902Z,14.31
2017-07-03T04:48:03.233Z,14.44
2017-07-03T04:49:03.214Z,14.51
2017-07-03T04:50:02.893Z,14.49
2017-07-03T04:51:03.236Z,14.51
2017-07-03T04:52:03.202Z,14.6
2017-07-03T04:53:02.873Z,14.6
2017-07-03T04:54:03.204Z,14.67
2017-07-03T04:55:02.877Z,14.64
2017-07-03T04:56:03.178Z,14.69
2017-07-03T04:57:03.180Z,14.9
2017-07-03T04:58:02.851Z,15.02
2017-07-03T04:59:03.184Z,15.07
2017-07-03T05:00:02.857Z,15.12
2017-07-03T05:01:02.855Z,15.07
2017-07-03T05:02:02.848Z,14.98
2017-07-03T05:03:03.163Z,15.04
2017-07-03T05:04:03.151Z,14.95
2017-07-03T05:05:03.139Z,14.82
2017-07-03T05:06:02.811Z,14.86
2017-07-03T05:07:03.156Z,14.87
2017-07-03T05:08:02.856Z,14.85
2017-07-03T05:09:02.821Z,14.82
2017-07-03T05:10:02.813Z,14.87
2017-07-03T05:11:02.807Z,14.97
2017-07-03T05:12:02.781Z,14.97
2017-07-03T05:13:03.101Z,14.94
2017-07-03T05:14:02.780Z,15.02
2017-07-03T05:15:02.777Z,15.07
2017-07-03T05:16:03.106Z,15.16
2017-07-03T05:17:03.087Z,15.16
2017-07-03T05:18:02.434Z,15.12
2017-07-03T05:19:02.751Z,15.02
2017-07-03T05:20:03.071Z,15.16
2017-07-03T05:21:03.077Z,15.16
2017-07-03T05:22:03.067Z,15.08
2017-07-03T05:23:02.733Z,15.2
2017-07-03T05:24:03.057Z,15.25
2017-07-03T05:25:02.734Z,15.22
2017-07-03T05:26:02.397Z,15.23
2017-07-03T05:27:03.037Z,15.25
2017-07-03T05:28:02.710Z,15.22
2017-07-03T05:29:02.383Z,15.2
2017-07-03T05:30:03.029Z,15.2
2017-07-03T05:31:03.027Z,15.23
2017-07-03T05:32:02.375Z,15.37
2017-07-03T05:33:03.019Z,15.33
2017-07-03T05:34:02.687Z,15.44
2017-07-03T05:35:02.685Z,15.43
2017-07-03T05:36:02.674Z,15.58
2017-07-03T05:37:02.993Z,15.58
2017-07-03T05:38:03.009Z,15.8
2017-07-03T05:39:02.665Z,15.84
2017-07-03T05:40:02.665Z,16.02
2017-07-03T05:41:02.980Z,16.14
2017-07-03T05:42:02.973Z,16.18
2017-07-03T05:43:02.973Z,16.17
2017-07-03T05:44:02.321Z,16.32
2017-07-03T05:45:02.961Z,16.32
2017-07-03T05:46:02.641Z,16.16
2017-07-03T05:47:02.956Z,16.17
2017-07-03T05:48:02.632Z,16.1
2017-07-03T05:49:02.626Z,16.18
2017-07-03T05:50:02.960Z,16.16
2017-07-03T05:51:02.939Z,16.16
2017-07-03T05:52:02.615Z,16.06
2017-07-03T05:53:02.609Z,15.98
2017-07-03T05:54:02.930Z,15.89
2017-07-03T05:55:02.607Z,15.71
2017-07-03T05:56:02.923Z,15.56
2017-07-03T05:57:02.916Z,15.52
2017-07-03T05:58:02.595Z,15.4
2017-07-03T05:59:02.914Z,15.3
2017-07-03T06:00:02.587Z,15.26
2017-07-03T06:01:02.263Z,15.13
2017-07-03T06:02:02.575Z,15.13
2017-07-03T06:03:02.252Z,15.2
2017-07-03T06:04:02.891Z,15.18
2017-07-03T06:05:02.891Z,15.35
2017-07-03T06:06:02.885Z,15.4
2017-07-03T06:07:02.880Z,15.38
2017-07-03T06:08:02.875Z,15.43
2017-07-03T06:09:02.551Z,15.47
2017-07-03T06:10:02.865Z,15.6
2017-07-03T06:11:02.547Z,15.77
2017-07-03T06:12:02.865Z,15.93
2017-07-03T06:13:02.548Z,15.84
2017-07-03T06:14:02.538Z,15.74
2017-07-03T06:15:02.850Z,15.7
2017-07-03T06:16:02.854Z,15.49
2017-07-03T06:17:02.837Z,15.58
2017-07-03T06:18:02.839Z,15.52
2017-07-03T06:19:02.839Z,15.51
2017-07-03T06:20:02.826Z,15.45
2017-07-03T06:21:02.184Z,15.41
2017-07-03T06:22:02.833Z,15.43
2017-07-03T06:23:02.178Z,15.45
2017-07-03T06:24:02.816Z,15.45
2017-07-03T06:25:02.500Z,15.45
2017-07-03T06:26:02.163Z,15.52
2017-07-03T06:27:02.478Z,15.63
2017-07-03T06:28:02.811Z,15.67
2017-07-03T06:29:02.475Z,15.77
2017-07-03T06:30:02.792Z,15.74
2017-07-03T06:31:02.790Z,15.7
2017-07-03T06:32:02.805Z,15.89
2017-07-03T06:33:02.458Z,15.93
2017-07-03T06:34:02.130Z,16.11
2017-07-03T06:35:02.779Z,16.22
2017-07-03T06:36:02.455Z,16.3
2017-07-03T06:37:02.774Z,16.54
2017-07-03T06:38:02.761Z,16.62
2017-07-03T06:39:02.760Z,16.81
2017-07-03T06:40:02.432Z,17.18
2017-07-03T06:41:02.756Z,17.55
2017-07-03T06:42:02.762Z,17.84
2017-07-03T06:43:02.447Z,18.17
2017-07-03T06:44:02.425Z,18.29
2017-07-03T06:45:02.789Z,18.2
2017-07-03T06:46:02.737Z,17.98
2017-07-03T06:47:02.733Z,17.79
2017-07-03T06:48:02.732Z,17.46
2017-07-03T06:49:02.748Z,17.18
2017-07-03T06:50:02.404Z,16.95
2017-07-03T06:51:02.404Z,16.72
2017-07-03T06:52:02.404Z,16.59
2017-07-03T06:53:02.722Z,16.42
2017-07-03T06:54:02.414Z,16.33
2017-07-03T06:55:02.716Z,16.21
2017-07-03T06:56:02.763Z,16.26
2017-07-03T06:57:02.707Z,16.25
2017-07-03T06:58:02.707Z,16.34
2017-07-03T06:59:02.376Z,16.39
2017-07-03T07:00:02.716Z,16.48
2017-07-03T07:01:02.376Z,16.48
2017-07-03T07:02:02.048Z,16.57
2017-07-03T07:03:02.689Z,17.27
2017-07-03T07:04:02.056Z,17.98
2017-07-03T07:05:02.682Z,18.27
2017-07-03T07:06:02.359Z,18.29
2017-07-03T07:07:02.373Z,18.23
2017-07-03T07:08:02.367Z,18.57
2017-07-03T07:09:02.034Z,19.63
2017-07-03T07:10:02.030Z,20.76
2017-07-03T07:11:02.720Z,21.74
2017-07-03T07:12:02.669Z,22.71
2017-07-03T07:13:02.357Z,23.42
2017-07-03T07:14:02.346Z,23.94
2017-07-03T07:15:02.665Z,24.39
2017-07-03T07:16:02.395Z,24.55
2017-07-03T07:17:02.341Z,25
2017-07-03T07:18:02.037Z,25.17
2017-07-03T07:19:02.347Z,24.74
2017-07-03T07:20:02.666Z,24.12
2017-07-03T07:21:02.671Z,23.42
2017-07-03T07:22:02.668Z,22.85
2017-07-03T07:23:02.691Z,22.57
2017-07-03T07:24:02.687Z,22.12
2017-07-03T07:25:02.674Z,21.7
2017-07-03T07:26:02.692Z,21.21
2017-07-03T07:27:02.705Z,21.58
2017-07-03T07:28:02.678Z,22.41
2017-07-03T07:29:02.675Z,23.22
2017-07-03T07:30:02.367Z,23.97
2017-07-03T07:31:02.353Z,24.61
2017-07-03T07:32:02.036Z,25.14
2017-07-03T07:33:02.721Z,25.66
2017-07-03T07:34:02.680Z,26.03
2017-07-03T07:35:02.704Z,26.38
2017-07-03T07:36:02.392Z,26.68
2017-07-03T07:37:02.371Z,27
2017-07-03T07:38:02.688Z,27.33
2017-07-03T07:39:02.695Z,27.66
2017-07-03T07:40:02.392Z,27.31
2017-07-03T07:41:02.722Z,26.81
2017-07-03T07:42:02.702Z,26.86
2017-07-03T07:43:02.712Z,27.12
2017-07-03T07:44:02.711Z,27.28
2017-07-03T07:45:02.712Z,26.59
2017-07-03T07:46:02.397Z,25.78
2017-07-03T07:47:02.719Z,25.02
2017-07-03T07:48:02.722Z,24.4
2017-07-03T07:49:02.410Z,23.6
2017-07-03T07:50:02.744Z,23.21
2017-07-03T07:51:02.752Z,22.75
2017-07-03T07:52:02.417Z,22.34
2017-07-03T07:53:02.463Z,22.12
2017-07-03T07:54:02.425Z,21.78
2017-07-03T07:55:02.744Z,21.62
2017-07-03T07:56:02.748Z,21.55
2017-07-03T07:57:02.771Z,21.3
2017-07-03T07:58:02.112Z,21.01
2017-07-03T07:59:02.433Z,20.75
2017-07-03T08:00:02.437Z,20.71
2017-07-03T08:01:02.434Z,20.79
2017-07-03T08:02:02.772Z,20.86
2017-07-03T08:03:02.438Z,20.91
2017-07-03T08:04:02.444Z,20.64
2017-07-03T08:05:02.761Z,20.27
2017-07-03T08:06:02.443Z,20.11
2017-07-03T08:07:02.481Z,19.72
2017-07-03T08:08:02.459Z,19.52
2017-07-03T08:09:02.442Z,19.43
2017-07-03T08:10:02.454Z,20.02
2017-07-03T08:11:02.461Z,20.72
2017-07-03T08:12:02.467Z,21.43
2017-07-03T08:13:02.443Z,22.42
2017-07-03T08:14:02.787Z,23.18
2017-07-03T08:15:02.445Z,23.63
2017-07-03T08:16:02.768Z,24.17
2017-07-03T08:17:02.451Z,24.52
2017-07-03T08:18:02.450Z,24.8
2017-07-03T08:19:02.450Z,25.17
2017-07-03T08:20:02.458Z,25.08
2017-07-03T08:21:02.769Z,25.01
2017-07-03T08:22:02.771Z,24.9
2017-07-03T08:23:02.800Z,24.42
2017-07-03T08:24:02.777Z,24.19
2017-07-03T08:25:02.463Z,23.85
2017-07-03T08:26:02.782Z,23.38
2017-07-03T08:27:02.776Z,22.99
2017-07-03T08:28:02.462Z,22.79
2017-07-03T08:29:02.451Z,22.52
2017-07-03T08:30:02.452Z,22.16
2017-07-03T08:31:02.787Z,21.85
2017-07-03T08:32:02.780Z,21.56
2017-07-03T08:33:02.777Z,21.38
2017-07-03T08:34:02.815Z,21.18
2017-07-03T08:35:02.455Z,20.75
2017-07-03T08:36:02.771Z,20.41
2017-07-03T08:37:02.154Z,20.15
2017-07-03T08:38:02.454Z,20.01
2017-07-03T08:39:02.150Z,19.74
2017-07-03T08:40:02.458Z,19.49
2017-07-03T08:41:02.124Z,19.23
2017-07-03T08:42:02.796Z,18.99
2017-07-03T08:43:02.773Z,18.87
2017-07-03T08:44:02.458Z,18.61
2017-07-03T08:45:02.470Z,18.42
2017-07-03T08:46:02.771Z,18.39
2017-07-03T08:47:02.447Z,18.41
2017-07-03T08:48:02.782Z,18.57
2017-07-03T08:49:02.776Z,18.76
2017-07-03T08:50:02.767Z,19.09
2017-07-03T08:51:02.446Z,19.43
2017-07-03T08:52:02.779Z,19.65
2017-07-03T08:53:02.130Z,19.93
2017-07-03T08:54:02.766Z,20.04
2017-07-03T08:55:02.140Z,20.12
2017-07-03T08:56:02.438Z,20.07
2017-07-03T08:57:02.119Z,20.04
2017-07-03T08:58:02.760Z,20.15
2017-07-03T08:59:02.759Z,20.29
2017-07-03T09:00:02.461Z,20.6
2017-07-03T09:01:02.135Z,20.78
2017-07-03T09:02:02.760Z,20.68
2017-07-03T09:03:02.439Z,20.53
2017-07-03T09:04:02.810Z,20.25
2017-07-03T09:05:02.756Z,20.04
2017-07-03T09:06:02.134Z,19.74
2017-07-03T09:07:02.430Z,19.49
2017-07-03T09:08:02.757Z,19.07
2017-07-03T09:09:02.447Z,18.82
2017-07-03T09:10:02.444Z,18.63
2017-07-03T09:11:02.755Z,18.5
2017-07-03T09:12:02.436Z,18.65
2017-07-03T09:13:02.752Z,18.6
2017-07-03T09:14:02.764Z,18.79
2017-07-03T09:15:02.429Z,18.97
2017-07-03T09:16:02.747Z,19.2
2017-07-03T09:17:02.750Z,19.4
2017-07-03T09:18:02.749Z,19.56
2017-07-03T09:19:02.743Z,19.57
2017-07-03T09:20:02.770Z,19.71
2017-07-03T09:21:02.422Z,19.65
2017-07-03T09:22:02.740Z,19.83
2017-07-03T09:23:02.741Z,19.89
2017-07-03T09:24:02.417Z,19.9
2017-07-03T09:25:02.412Z,20.02
2017-07-03T09:26:02.414Z,20.04
2017-07-03T09:27:02.415Z,20.2
2017-07-03T09:28:02.737Z,20.1
2017-07-03T09:29:02.416Z,20.44
2017-07-03T09:30:02.739Z,20.61
2017-07-03T09:31:02.412Z,21
2017-07-03T09:32:02.737Z,21.19
2017-07-03T09:33:02.413Z,21.52
2017-07-03T09:34:02.087Z,21.53
2017-07-03T09:35:02.727Z,21.48
2017-07-03T09:36:02.411Z,21.76
2017-07-03T09:37:02.404Z,21.94
2017-07-03T09:38:02.105Z,21.97
2017-07-03T09:39:02.730Z,21.94
2017-07-03T09:40:02.122Z,22.07
2017-07-03T09:41:02.410Z,22.11
2017-07-03T09:42:02.739Z,21.97
2017-07-03T09:43:02.412Z,21.9
2017-07-03T09:44:02.408Z,21.67
2017-07-03T09:45:02.427Z,21.33
2017-07-03T09:46:02.410Z,21.03
2017-07-03T09:47:02.738Z,20.71
2017-07-03T09:48:02.412Z,20.38
2017-07-03T09:49:02.732Z,20.49
2017-07-03T09:50:02.409Z,20.54
2017-07-03T09:51:02.728Z,20.56
2017-07-03T09:52:02.426Z,20.82
2017-07-03T09:53:02.731Z,20.96
2017-07-03T09:54:02.742Z,20.83
2017-07-03T09:55:02.408Z,20.74
2017-07-03T09:56:02.753Z,20.63
2017-07-03T09:57:02.410Z,20.41
2017-07-03T09:58:02.729Z,20.46
2017-07-03T09:59:02.728Z,20.42
2017-07-03T10:00:02.731Z,20.54
2017-07-03T10:01:02.743Z,20.51
2017-07-03T10:02:02.731Z,20.54
2017-07-03T10:03:02.736Z,20.75
2017-07-03T10:04:02.724Z,20.83
2017-07-03T10:05:02.729Z,20.88
2017-07-03T10:06:02.728Z,21.13
2017-07-03T10:07:02.739Z,21.4
2017-07-03T10:08:02.408Z,21.8
2017-07-03T10:09:02.411Z,22.12
2017-07-03T10:10:02.408Z,22.04
2017-07-03T10:11:02.423Z,21.99
2017-07-03T10:12:02.734Z,21.7
2017-07-03T10:13:02.413Z,21.37
2017-07-03T10:14:02.742Z,21.12
2017-07-03T10:15:02.107Z,21.06
2017-07-03T10:16:02.428Z,21.03
2017-07-03T10:17:02.405Z,21.15
2017-07-03T10:18:02.090Z,21.3
2017-07-03T10:19:02.085Z,21.34
2017-07-03T10:20:02.410Z,21.37
2017-07-03T10:21:02.736Z,21.27
2017-07-03T10:22:02.752Z,21.28
2017-07-03T10:23:02.745Z,21.36
2017-07-03T10:24:02.766Z,21.59
2017-07-03T10:25:02.736Z,21.4
2017-07-03T10:26:02.740Z,21.19
2017-07-03T10:27:02.434Z,21
2017-07-03T10:28:02.413Z,20.82
2017-07-03T10:29:02.415Z,20.83
2017-07-03T10:30:02.735Z,21.04
2017-07-03T10:31:02.733Z,21.15
2017-07-03T10:32:02.412Z,21.23
2017-07-03T10:33:02.088Z,21.28
2017-07-03T10:34:02.421Z,21.43
2017-07-03T10:35:02.760Z,21.43
2017-07-03T10:36:02.411Z,21.38
2017-07-03T10:37:02.735Z,21.41
2017-07-03T10:38:02.416Z,21.59
2017-07-03T10:39:02.412Z,21.78
2017-07-03T10:40:02.409Z,21.99
2017-07-03T10:41:02.757Z,22.11
2017-07-03T10:42:02.781Z,22.24
2017-07-03T10:43:02.733Z,22.23
2017-07-03T10:44:02.413Z,22.3
2017-07-03T10:45:02.737Z,22.23
2017-07-03T10:46:02.090Z,21.94
2017-07-03T10:47:02.734Z,21.38
2017-07-03T10:48:02.737Z,21.08
2017-07-03T10:49:02.750Z,20.72
2017-07-03T10:50:02.444Z,20.58
2017-07-03T10:51:02.736Z,20.71
2017-07-03T10:52:02.734Z,20.85
2017-07-03T10:53:02.741Z,21.06
2017-07-03T10:54:02.737Z,21.16
2017-07-03T10:55:02.100Z,21.25
2017-07-03T10:56:02.754Z,21.53
2017-07-03T10:57:02.741Z,21.56
2017-07-03T10:58:02.416Z,21.74
2017-07-03T10:59:02.437Z,21.89
2017-07-03T11:00:02.480Z,21.97
2017-07-03T11:01:02.435Z,21.85
2017-07-03T11:02:02.742Z,21.96
2017-07-03T11:03:02.739Z,21.94
2017-07-03T11:04:02.740Z,21.94
2017-07-03T11:05:02.417Z,22.24
2017-07-03T11:06:02.106Z,22.23
2017-07-03T11:07:02.416Z,22.23
2017-07-03T11:08:02.430Z,22.24
2017-07-03T11:09:02.438Z,22.33
2017-07-03T11:10:02.417Z,22.39
2017-07-03T11:11:02.761Z,22.41
2017-07-03T11:12:02.421Z,22.38
2017-07-03T11:13:02.425Z,22.46
2017-07-03T11:14:02.762Z,22.46
2017-07-03T11:15:02.421Z,22.3
2017-07-03T11:16:02.764Z,22.05
2017-07-03T11:17:02.430Z,21.92
2017-07-03T11:18:02.104Z,21.61
2017-07-03T11:19:02.744Z,21.46
2017-07-03T11:20:02.745Z,21.38
2017-07-03T11:21:02.121Z,21.45
2017-07-03T11:22:02.749Z,21.43
2017-07-03T11:23:02.108Z,21.38
2017-07-03T11:24:02.747Z,21.41
2017-07-03T11:25:02.443Z,21.55
2017-07-03T11:26:02.428Z,21.68
2017-07-03T11:27:02.431Z,21.82
2017-07-03T11:28:02.756Z,22
2017-07-03T11:29:02.791Z,21.9
2017-07-03T11:30:02.757Z,21.78
2017-07-03T11:31:02.108Z,21.68
2017-07-03T11:32:02.755Z,21.48
2017-07-03T11:33:02.806Z,21.61
2017-07-03T11:34:02.771Z,21.71
2017-07-03T11:35:02.778Z,21.99
2017-07-03T11:36:02.433Z,22.07
2017-07-03T11:37:02.438Z,21.99
2017-07-03T11:38:02.762Z,21.76
2017-07-03T11:39:02.752Z,21.78
2017-07-03T11:40:02.775Z,21.8
2017-07-03T11:41:02.434Z,21.58
2017-07-03T11:42:02.444Z,21.61
2017-07-03T11:43:02.470Z,21.67
2017-07-03T11:44:02.171Z,21.73
2017-07-03T11:45:02.112Z,21.78
2017-07-03T11:46:02.757Z,21.96
2017-07-03T11:47:02.761Z,21.97
2017-07-03T11:48:02.782Z,21.92
2017-07-03T11:49:02.762Z,21.99
2017-07-03T11:50:02.443Z,21.8
2017-07-03T11:51:02.467Z,21.76
2017-07-03T11:52:02.760Z,21.64
2017-07-03T11:53:02.767Z,21.62
2017-07-03T11:54:02.781Z,21.74
2017-07-03T11:55:02.767Z,21.85
2017-07-03T11:56:02.461Z,21.94
2017-07-03T11:57:02.468Z,21.86
2017-07-03T11:58:02.771Z,21.83
2017-07-03T11:59:02.769Z,21.83
2017-07-03T12:00:02.452Z,21.9
2017-07-03T12:01:02.130Z,22.04
2017-07-03T12:02:02.782Z,21.92
2017-07-03T12:03:02.796Z,22.02
2017-07-03T12:04:02.451Z,21.97
2017-07-03T12:05:02.788Z,21.93
2017-07-03T12:06:02.774Z,22.07
2017-07-03T12:07:02.481Z,21.89
2017-07-03T12:08:02.457Z,21.78
2017-07-03T12:09:02.472Z,21.58
2017-07-03T12:10:02.451Z,21.61
2017-07-03T12:11:02.456Z,21.45
2017-07-03T12:12:02.781Z,21.59
2017-07-03T12:13:02.459Z,21.71
2017-07-03T12:14:02.469Z,21.8
2017-07-03T12:15:02.480Z,21.96
2017-07-03T12:16:02.788Z,21.9
2017-07-03T12:17:02.777Z,22.09
2017-07-03T12:18:02.455Z,22.23
2017-07-03T12:19:02.473Z,22.23
2017-07-03T12:20:02.458Z,22.26
2017-07-03T12:21:02.781Z,22.26
2017-07-03T12:22:02.459Z,22.23
2017-07-03T12:23:02.459Z,22.27
2017-07-03T12:24:02.781Z,22.3
2017-07-03T12:25:02.457Z,22.31
2017-07-03T12:26:02.475Z,22.3
2017-07-03T12:27:02.142Z,22.14
2017-07-03T12:28:02.783Z,22
2017-07-03T12:29:02.467Z,21.96
2017-07-03T12:30:02.802Z,21.99
2017-07-03T12:31:02.468Z,21.92
2017-07-03T12:32:02.464Z,21.94
2017-07-03T12:33:02.471Z,21.92
2017-07-03T12:34:02.466Z,21.8
2017-07-03T12:35:02.467Z,21.78
2017-07-03T12:36:02.467Z,21.66
2017-07-03T12:37:02.786Z,21.51
2017-07-03T12:38:02.515Z,21.41
2017-07-03T12:39:02.468Z,21.3
2017-07-03T12:40:02.488Z,21.28
2017-07-03T12:41:02.471Z,21.4
2017-07-03T12:42:02.472Z,21.45
2017-07-03T12:43:02.473Z,21.59
2017-07-03T12:44:02.797Z,21.48
2017-07-03T12:45:02.820Z,21.64
2017-07-03T12:46:02.471Z,21.78
2017-07-03T12:47:02.481Z,21.93
2017-07-03T12:48:02.478Z,22.02
2017-07-03T12:49:02.799Z,21.94
2017-07-03T12:50:02.488Z,22.05
2017-07-03T12:51:02.797Z,21.99
2017-07-03T12:52:02.477Z,22.09
2017-07-03T12:53:02.476Z,21.94
2017-07-03T12:54:02.798Z,21.93
2017-07-03T12:55:02.804Z,21.9
2017-07-03T12:56:02.475Z,21.93